sensor_id;sensor_type;location;lat;lon;timestamp;P1;durP1;ratioP1;P2;durP2;ratioP2
51288;SDS011;37372;52.294;5.152;2023-03-21T00:01:51;32.78;;;22.65;;
51288;SDS011;37372;52.294;5.152;2023-03-21T00:04:32;30.25;;;21.88;;
51288;SDS011;37372;52.294;5.152;2023-03-21T00:07:00;35.15;;;22.55;;
51288;SDS011;37372;52.294;5.152;2023-03-21T00:09:25;34.25;;;21.58;;
51288;SDS011;37372;52.294;5.152;2023-03-21T00:11:52;37.53;;;24.52;;
51288;SDS011;37372;52.294;5.152;2023-03-21T00:14:30;35.58;;;24.05;;
51288;SDS011;37372;52.294;5.152;2023-03-21T00:16:58;32.22;;;23.48;;
51288;SDS011;37372;52.294;5.152;2023-03-21T00:19:28;32.35;;;21.27;;
51288;SDS011;37372;52.294;5.152;2023-03-21T00:21:55;34.13;;;22.55;;
51288;SDS011;37372;52.294;5.152;2023-03-21T00:24:33;33.53;;;21.60;;
51288;SDS011;37372;52.294;5.152;2023-03-21T00:27:00;33.08;;;21.75;;
51288;SDS011;37372;52.294;5.152;2023-03-21T00:29:27;29.35;;;19.45;;
51288;SDS011;37372;52.294;5.152;2023-03-21T00:31:53;32.58;;;20.75;;
51288;SDS011;37372;52.294;5.152;2023-03-21T00:37:02;30.88;;;20.08;;
51288;SDS011;37372;52.294;5.152;2023-03-21T00:39:32;30.30;;;19.15;;
51288;SDS011;37372;52.294;5.152;2023-03-21T00:41:57;28.48;;;18.73;;
51288;SDS011;37372;52.294;5.152;2023-03-21T00:44:32;29.40;;;19.30;;
51288;SDS011;37372;52.294;5.152;2023-03-21T00:47:02;30.05;;;18.20;;
51288;SDS011;37372;52.294;5.152;2023-03-21T00:49:37;32.45;;;20.15;;
51288;SDS011;37372;52.294;5.152;2023-03-21T00:52:05;29.45;;;17.55;;
51288;SDS011;37372;52.294;5.152;2023-03-21T00:54:35;28.60;;;18.27;;
51288;SDS011;37372;52.294;5.152;2023-03-21T00:57:03;26.40;;;17.70;;
51288;SDS011;37372;52.294;5.152;2023-03-21T00:59:37;27.00;;;17.52;;
51288;SDS011;37372;52.294;5.152;2023-03-21T01:02:03;26.07;;;17.57;;
51288;SDS011;37372;52.294;5.152;2023-03-21T01:04:39;25.63;;;16.58;;
51288;SDS011;37372;52.294;5.152;2023-03-21T01:07:06;26.55;;;16.88;;
51288;SDS011;37372;52.294;5.152;2023-03-21T01:09:40;24.95;;;15.70;;
51288;SDS011;37372;52.294;5.152;2023-03-21T01:12:07;25.35;;;17.67;;
51288;SDS011;37372;52.294;5.152;2023-03-21T01:14:45;24.50;;;16.40;;
51288;SDS011;37372;52.294;5.152;2023-03-21T01:17:11;24.90;;;15.32;;
51288;SDS011;37372;52.294;5.152;2023-03-21T01:19:43;26.65;;;17.10;;
51288;SDS011;37372;52.294;5.152;2023-03-21T01:22:08;29.00;;;19.40;;
51288;SDS011;37372;52.294;5.152;2023-03-21T01:24:45;27.27;;;17.17;;
51288;SDS011;37372;52.294;5.152;2023-03-21T01:27:11;30.95;;;17.58;;
51288;SDS011;37372;52.294;5.152;2023-03-21T01:29:45;27.05;;;18.40;;
51288;SDS011;37372;52.294;5.152;2023-03-21T01:32:11;26.02;;;17.35;;
51288;SDS011;37372;52.294;5.152;2023-03-21T01:34:45;25.42;;;17.15;;
51288;SDS011;37372;52.294;5.152;2023-03-21T01:37:10;25.90;;;17.13;;
51288;SDS011;37372;52.294;5.152;2023-03-21T01:39:44;29.73;;;17.23;;
51288;SDS011;37372;52.294;5.152;2023-03-21T01:42:13;27.83;;;17.80;;
51288;SDS011;37372;52.294;5.152;2023-03-21T01:44:52;27.17;;;17.23;;
51288;SDS011;37372;52.294;5.152;2023-03-21T01:47:22;29.25;;;18.15;;
51288;SDS011;37372;52.294;5.152;2023-03-21T01:49:51;29.75;;;18.58;;
51288;SDS011;37372;52.294;5.152;2023-03-21T01:52:28;29.77;;;18.48;;
51288;SDS011;37372;52.294;5.152;2023-03-21T01:55:06;29.95;;;18.60;;
51288;SDS011;37372;52.294;5.152;2023-03-21T01:57:39;27.55;;;17.67;;
51288;SDS011;37372;52.294;5.152;2023-03-21T02:00:10;29.45;;;19.08;;
51288;SDS011;37372;52.294;5.152;2023-03-21T02:02:42;33.40;;;21.25;;
51288;SDS011;37372;52.294;5.152;2023-03-21T02:05:17;29.50;;;19.67;;
51288;SDS011;37372;52.294;5.152;2023-03-21T02:07:50;31.27;;;20.33;;
51288;SDS011;37372;52.294;5.152;2023-03-21T02:10:20;32.13;;;19.60;;
51288;SDS011;37372;52.294;5.152;2023-03-21T02:12:46;33.25;;;18.65;;
51288;SDS011;37372;52.294;5.152;2023-03-21T02:15:12;32.17;;;21.10;;
51288;SDS011;37372;52.294;5.152;2023-03-21T02:17:48;33.67;;;21.92;;
51288;SDS011;37372;52.294;5.152;2023-03-21T02:29:00;33.65;;;21.58;;
51288;SDS011;37372;52.294;5.152;2023-03-21T02:31:40;30.50;;;20.77;;
51288;SDS011;37372;52.294;5.152;2023-03-21T02:40:22;38.30;;;22.88;;
51288;SDS011;37372;52.294;5.152;2023-03-21T02:45:53;39.67;;;24.38;;
51288;SDS011;37372;52.294;5.152;2023-03-21T02:48:30;37.63;;;23.60;;
51288;SDS011;37372;52.294;5.152;2023-03-21T02:51:09;43.90;;;26.60;;
51288;SDS011;37372;52.294;5.152;2023-03-21T02:53:41;45.95;;;25.50;;
51288;SDS011;37372;52.294;5.152;2023-03-21T02:56:10;45.00;;;25.98;;
51288;SDS011;37372;52.294;5.152;2023-03-21T02:58:37;44.10;;;25.58;;
51288;SDS011;37372;52.294;5.152;2023-03-21T03:01:05;45.03;;;25.83;;
51288;SDS011;37372;52.294;5.152;2023-03-21T03:03:34;44.03;;;26.83;;
51288;SDS011;37372;52.294;5.152;2023-03-21T03:06:05;48.38;;;26.63;;
51288;SDS011;37372;52.294;5.152;2023-03-21T03:09:04;46.88;;;27.50;;
51288;SDS011;37372;52.294;5.152;2023-03-21T03:11:34;46.67;;;27.73;;
51288;SDS011;37372;52.294;5.152;2023-03-21T03:14:06;53.30;;;27.15;;
51288;SDS011;37372;52.294;5.152;2023-03-21T03:23:16;47.15;;;25.77;;
51288;SDS011;37372;52.294;5.152;2023-03-21T03:25:51;41.75;;;26.27;;
51288;SDS011;37372;52.294;5.152;2023-03-21T03:28:24;42.92;;;23.48;;
51288;SDS011;37372;52.294;5.152;2023-03-21T03:30:53;41.22;;;21.80;;
51288;SDS011;37372;52.294;5.152;2023-03-21T03:33:28;42.03;;;22.85;;
51288;SDS011;37372;52.294;5.152;2023-03-21T03:36:01;38.97;;;21.73;;
51288;SDS011;37372;52.294;5.152;2023-03-21T03:38:29;36.28;;;21.25;;
51288;SDS011;37372;52.294;5.152;2023-03-21T03:40:58;37.08;;;20.85;;
51288;SDS011;37372;52.294;5.152;2023-03-21T03:43:54;39.08;;;20.08;;
51288;SDS011;37372;52.294;5.152;2023-03-21T03:46:31;35.50;;;19.30;;
51288;SDS011;37372;52.294;5.152;2023-03-21T03:49:35;32.65;;;19.10;;
51288;SDS011;37372;52.294;5.152;2023-03-21T03:52:11;28.55;;;19.10;;
51288;SDS011;37372;52.294;5.152;2023-03-21T03:54:43;29.85;;;17.60;;
51288;SDS011;37372;52.294;5.152;2023-03-21T03:57:34;27.10;;;18.02;;
51288;SDS011;37372;52.294;5.152;2023-03-21T04:02:29;27.42;;;17.48;;
51288;SDS011;37372;52.294;5.152;2023-03-21T04:05:10;31.52;;;18.80;;
51288;SDS011;37372;52.294;5.152;2023-03-21T04:07:37;29.58;;;16.08;;
51288;SDS011;37372;52.294;5.152;2023-03-21T04:10:17;31.35;;;16.55;;
51288;SDS011;37372;52.294;5.152;2023-03-21T04:12:46;29.27;;;17.45;;
51288;SDS011;37372;52.294;5.152;2023-03-21T04:15:20;35.17;;;17.60;;
51288;SDS011;37372;52.294;5.152;2023-03-21T04:17:47;28.60;;;16.50;;
51288;SDS011;37372;52.294;5.152;2023-03-21T04:20:20;28.70;;;16.63;;
51288;SDS011;37372;52.294;5.152;2023-03-21T04:22:47;37.63;;;16.67;;
51288;SDS011;37372;52.294;5.152;2023-03-21T04:25:17;33.38;;;16.35;;
51288;SDS011;37372;52.294;5.152;2023-03-21T04:27:42;28.60;;;16.52;;
51288;SDS011;37372;52.294;5.152;2023-03-21T04:30:17;29.85;;;15.52;;
51288;SDS011;37372;52.294;5.152;2023-03-21T04:32:45;32.80;;;15.98;;
51288;SDS011;37372;52.294;5.152;2023-03-21T04:38:23;27.98;;;14.48;;
51288;SDS011;37372;52.294;5.152;2023-03-21T04:40:54;31.02;;;14.43;;
51288;SDS011;37372;52.294;5.152;2023-03-21T04:43:22;32.47;;;14.27;;
51288;SDS011;37372;52.294;5.152;2023-03-21T04:45:50;24.60;;;13.38;;
51288;SDS011;37372;52.294;5.152;2023-03-21T04:48:16;23.45;;;12.77;;
51288;SDS011;37372;52.294;5.152;2023-03-21T04:50:45;35.03;;;15.43;;
51288;SDS011;37372;52.294;5.152;2023-03-21T04:53:24;30.08;;;14.32;;
51288;SDS011;37372;52.294;5.152;2023-03-21T04:55:50;29.05;;;14.25;;
51288;SDS011;37372;52.294;5.152;2023-03-21T04:58:15;22.83;;;12.43;;
51288;SDS011;37372;52.294;5.152;2023-03-21T05:00:41;28.05;;;15.35;;
51288;SDS011;37372;52.294;5.152;2023-03-21T05:06:14;33.75;;;16.23;;
51288;SDS011;37372;52.294;5.152;2023-03-21T05:08:41;28.70;;;16.02;;
51288;SDS011;37372;52.294;5.152;2023-03-21T05:11:07;30.92;;;16.50;;
51288;SDS011;37372;52.294;5.152;2023-03-21T05:13:32;34.08;;;16.75;;
51288;SDS011;37372;52.294;5.152;2023-03-21T05:15:59;33.65;;;17.58;;
51288;SDS011;37372;52.294;5.152;2023-03-21T05:18:26;32.13;;;18.15;;
51288;SDS011;37372;52.294;5.152;2023-03-21T05:20:52;33.55;;;19.48;;
51288;SDS011;37372;52.294;5.152;2023-03-21T05:23:24;29.38;;;18.67;;
51288;SDS011;37372;52.294;5.152;2023-03-21T05:28:31;41.63;;;19.90;;
51288;SDS011;37372;52.294;5.152;2023-03-21T05:31:01;34.13;;;18.95;;
51288;SDS011;37372;52.294;5.152;2023-03-21T05:33:28;41.00;;;20.35;;
51288;SDS011;37372;52.294;5.152;2023-03-21T05:35:58;41.30;;;19.10;;
51288;SDS011;37372;52.294;5.152;2023-03-21T05:38:26;37.83;;;20.00;;
51288;SDS011;37372;52.294;5.152;2023-03-21T05:40:52;36.80;;;20.83;;
51288;SDS011;37372;52.294;5.152;2023-03-21T05:43:28;39.95;;;19.08;;
51288;SDS011;37372;52.294;5.152;2023-03-21T05:48:28;35.72;;;19.63;;
51288;SDS011;37372;52.294;5.152;2023-03-21T05:50:54;43.95;;;18.95;;
51288;SDS011;37372;52.294;5.152;2023-03-21T05:53:19;40.53;;;22.02;;
51288;SDS011;37372;52.294;5.152;2023-03-21T05:55:45;36.28;;;19.23;;
51288;SDS011;37372;52.294;5.152;2023-03-21T05:58:11;36.97;;;18.95;;
51288;SDS011;37372;52.294;5.152;2023-03-21T06:00:37;43.03;;;20.25;;
51288;SDS011;37372;52.294;5.152;2023-03-21T06:03:02;35.22;;;20.00;;
51288;SDS011;37372;52.294;5.152;2023-03-21T06:05:29;44.88;;;19.50;;
51288;SDS011;37372;52.294;5.152;2023-03-21T06:08:03;39.00;;;21.00;;
51288;SDS011;37372;52.294;5.152;2023-03-21T06:10:36;44.78;;;21.58;;
51288;SDS011;37372;52.294;5.152;2023-03-21T06:13:05;40.63;;;22.17;;
51288;SDS011;37372;52.294;5.152;2023-03-21T06:15:36;42.97;;;22.27;;
51288;SDS011;37372;52.294;5.152;2023-03-21T06:18:11;38.72;;;21.85;;
51288;SDS011;37372;52.294;5.152;2023-03-21T06:20:36;38.55;;;22.05;;
51288;SDS011;37372;52.294;5.152;2023-03-21T06:23:06;42.33;;;20.23;;
51288;SDS011;37372;52.294;5.152;2023-03-21T06:25:52;41.05;;;21.90;;
51288;SDS011;37372;52.294;5.152;2023-03-21T06:28:20;46.15;;;20.45;;
51288;SDS011;37372;52.294;5.152;2023-03-21T06:30:54;51.55;;;23.67;;
51288;SDS011;37372;52.294;5.152;2023-03-21T06:33:23;39.37;;;21.33;;
51288;SDS011;37372;52.294;5.152;2023-03-21T06:35:53;48.60;;;22.13;;
51288;SDS011;37372;52.294;5.152;2023-03-21T06:38:20;44.40;;;20.05;;
51288;SDS011;37372;52.294;5.152;2023-03-21T06:41:05;35.95;;;19.92;;
51288;SDS011;37372;52.294;5.152;2023-03-21T06:43:32;40.03;;;20.40;;
51288;SDS011;37372;52.294;5.152;2023-03-21T06:46:05;38.25;;;20.25;;
51288;SDS011;37372;52.294;5.152;2023-03-21T06:48:30;35.40;;;19.27;;
51288;SDS011;37372;52.294;5.152;2023-03-21T06:50:57;43.45;;;19.17;;
51288;SDS011;37372;52.294;5.152;2023-03-21T06:53:24;37.85;;;19.13;;
51288;SDS011;37372;52.294;5.152;2023-03-21T06:56:08;33.78;;;19.02;;
51288;SDS011;37372;52.294;5.152;2023-03-21T06:58:36;45.85;;;18.30;;
51288;SDS011;37372;52.294;5.152;2023-03-21T07:01:03;34.53;;;18.75;;
51288;SDS011;37372;52.294;5.152;2023-03-21T07:03:32;35.75;;;18.23;;
51288;SDS011;37372;52.294;5.152;2023-03-21T07:06:12;35.75;;;17.88;;
51288;SDS011;37372;52.294;5.152;2023-03-21T07:08:40;36.08;;;16.88;;
51288;SDS011;37372;52.294;5.152;2023-03-21T07:11:07;29.60;;;16.90;;
51288;SDS011;37372;52.294;5.152;2023-03-21T07:13:46;31.25;;;17.30;;
51288;SDS011;37372;52.294;5.152;2023-03-21T07:16:14;29.77;;;17.17;;
51288;SDS011;37372;52.294;5.152;2023-03-21T07:19:26;28.13;;;14.77;;
51288;SDS011;37372;52.294;5.152;2023-03-21T07:22:26;30.52;;;14.50;;
51288;SDS011;37372;52.294;5.152;2023-03-21T07:24:52;30.77;;;13.85;;
51288;SDS011;37372;52.294;5.152;2023-03-21T07:27:17;27.85;;;13.57;;
51288;SDS011;37372;52.294;5.152;2023-03-21T07:29:43;23.00;;;12.38;;
51288;SDS011;37372;52.294;5.152;2023-03-21T07:32:11;29.02;;;12.35;;
51288;SDS011;37372;52.294;5.152;2023-03-21T07:34:36;22.35;;;12.07;;
51288;SDS011;37372;52.294;5.152;2023-03-21T07:37:07;20.88;;;12.35;;
51288;SDS011;37372;52.294;5.152;2023-03-21T07:39:35;34.00;;;13.25;;
51288;SDS011;37372;52.294;5.152;2023-03-21T07:42:01;30.55;;;13.40;;
51288;SDS011;37372;52.294;5.152;2023-03-21T07:44:27;25.42;;;12.30;;
51288;SDS011;37372;52.294;5.152;2023-03-21T07:46:54;31.65;;;14.25;;
51288;SDS011;37372;52.294;5.152;2023-03-21T07:49:20;24.52;;;11.50;;
51288;SDS011;37372;52.294;5.152;2023-03-21T07:51:54;19.85;;;11.32;;
51288;SDS011;37372;52.294;5.152;2023-03-21T07:54:26;23.52;;;11.85;;
51288;SDS011;37372;52.294;5.152;2023-03-21T07:56:52;21.50;;;12.25;;
51288;SDS011;37372;52.294;5.152;2023-03-21T07:59:22;28.90;;;12.65;;
51288;SDS011;37372;52.294;5.152;2023-03-21T08:01:51;23.88;;;11.30;;
51288;SDS011;37372;52.294;5.152;2023-03-21T08:04:16;20.00;;;11.57;;
51288;SDS011;37372;52.294;5.152;2023-03-21T08:06:41;26.73;;;11.55;;
51288;SDS011;37372;52.294;5.152;2023-03-21T08:09:07;22.27;;;12.00;;
51288;SDS011;37372;52.294;5.152;2023-03-21T08:11:36;26.17;;;12.02;;
51288;SDS011;37372;52.294;5.152;2023-03-21T08:14:04;27.50;;;11.13;;
51288;SDS011;37372;52.294;5.152;2023-03-21T08:16:30;24.08;;;11.20;;
51288;SDS011;37372;52.294;5.152;2023-03-21T08:18:55;35.35;;;13.52;;
51288;SDS011;37372;52.294;5.152;2023-03-21T08:21:22;28.83;;;11.73;;
51288;SDS011;37372;52.294;5.152;2023-03-21T08:23:48;25.45;;;12.70;;
51288;SDS011;37372;52.294;5.152;2023-03-21T08:26:22;29.67;;;11.32;;
51288;SDS011;37372;52.294;5.152;2023-03-21T08:28:50;21.25;;;10.85;;
51288;SDS011;37372;52.294;5.152;2023-03-21T08:31:16;31.45;;;13.02;;
51288;SDS011;37372;52.294;5.152;2023-03-21T08:33:42;23.75;;;11.95;;
51288;SDS011;37372;52.294;5.152;2023-03-21T08:36:07;26.40;;;11.40;;
51288;SDS011;37372;52.294;5.152;2023-03-21T08:38:37;25.70;;;11.88;;
51288;SDS011;37372;52.294;5.152;2023-03-21T08:41:04;23.45;;;10.70;;
51288;SDS011;37372;52.294;5.152;2023-03-21T08:43:53;21.08;;;11.07;;
51288;SDS011;37372;52.294;5.152;2023-03-21T08:46:19;21.05;;;11.45;;
51288;SDS011;37372;52.294;5.152;2023-03-21T08:48:47;20.48;;;11.43;;
51288;SDS011;37372;52.294;5.152;2023-03-21T08:51:22;22.15;;;11.27;;
51288;SDS011;37372;52.294;5.152;2023-03-21T08:53:47;23.17;;;12.75;;
51288;SDS011;37372;52.294;5.152;2023-03-21T08:56:24;25.13;;;12.07;;
51288;SDS011;37372;52.294;5.152;2023-03-21T08:58:56;22.15;;;11.57;;
51288;SDS011;37372;52.294;5.152;2023-03-21T09:01:23;23.70;;;10.80;;
51288;SDS011;37372;52.294;5.152;2023-03-21T09:04:01;22.77;;;11.27;;
51288;SDS011;37372;52.294;5.152;2023-03-21T09:06:32;22.83;;;12.48;;
51288;SDS011;37372;52.294;5.152;2023-03-21T09:09:02;31.08;;;12.38;;
51288;SDS011;37372;52.294;5.152;2023-03-21T09:11:32;20.77;;;10.35;;
51288;SDS011;37372;52.294;5.152;2023-03-21T09:13:58;24.13;;;10.73;;
51288;SDS011;37372;52.294;5.152;2023-03-21T09:16:51;17.83;;;9.18;;
51288;SDS011;37372;52.294;5.152;2023-03-21T09:19:16;19.38;;;9.48;;
51288;SDS011;37372;52.294;5.152;2023-03-21T09:21:52;14.68;;;7.78;;
51288;SDS011;37372;52.294;5.152;2023-03-21T09:24:22;20.65;;;8.25;;
51288;SDS011;37372;52.294;5.152;2023-03-21T09:26:48;16.30;;;7.30;;
51288;SDS011;37372;52.294;5.152;2023-03-21T09:29:16;18.65;;;7.47;;
51288;SDS011;37372;52.294;5.152;2023-03-21T09:31:45;15.23;;;7.00;;
51288;SDS011;37372;52.294;5.152;2023-03-21T09:34:11;15.50;;;7.65;;
51288;SDS011;37372;52.294;5.152;2023-03-21T09:36:39;14.63;;;7.40;;
51288;SDS011;37372;52.294;5.152;2023-03-21T09:39:15;15.50;;;6.18;;
51288;SDS011;37372;52.294;5.152;2023-03-21T09:47:23;15.48;;;6.50;;
51288;SDS011;37372;52.294;5.152;2023-03-21T09:49:57;16.38;;;7.32;;
51288;SDS011;37372;52.294;5.152;2023-03-21T09:52:32;12.70;;;5.82;;
51288;SDS011;37372;52.294;5.152;2023-03-21T09:55:26;16.88;;;6.82;;
51288;SDS011;37372;52.294;5.152;2023-03-21T10:01:18;11.07;;;5.97;;
51288;SDS011;37372;52.294;5.152;2023-03-21T10:03:57;11.20;;;6.07;;
51288;SDS011;37372;52.294;5.152;2023-03-21T10:06:25;19.00;;;6.40;;
51288;SDS011;37372;52.294;5.152;2023-03-21T10:09:17;17.05;;;7.72;;
51288;SDS011;37372;52.294;5.152;2023-03-21T10:11:55;11.45;;;6.32;;
51288;SDS011;37372;52.294;5.152;2023-03-21T10:14:51;15.07;;;8.10;;
51288;SDS011;37372;52.294;5.152;2023-03-21T10:20:13;14.98;;;7.05;;
51288;SDS011;37372;52.294;5.152;2023-03-21T10:22:43;17.40;;;7.88;;
51288;SDS011;37372;52.294;5.152;2023-03-21T10:25:19;12.57;;;6.80;;
51288;SDS011;37372;52.294;5.152;2023-03-21T10:27:57;14.15;;;7.03;;
51288;SDS011;37372;52.294;5.152;2023-03-21T10:33:13;13.23;;;6.65;;
51288;SDS011;37372;52.294;5.152;2023-03-21T10:35:43;14.57;;;6.93;;
51288;SDS011;37372;52.294;5.152;2023-03-21T10:38:14;16.23;;;6.82;;
51288;SDS011;37372;52.294;5.152;2023-03-21T10:40:42;19.60;;;7.88;;
51288;SDS011;37372;52.294;5.152;2023-03-21T10:45:54;15.70;;;7.03;;
51288;SDS011;37372;52.294;5.152;2023-03-21T10:48:21;14.40;;;7.45;;
51288;SDS011;37372;52.294;5.152;2023-03-21T10:50:58;19.90;;;7.68;;
51288;SDS011;37372;52.294;5.152;2023-03-21T10:53:40;19.83;;;6.97;;
51288;SDS011;37372;52.294;5.152;2023-03-21T10:59:02;14.68;;;6.75;;
51288;SDS011;37372;52.294;5.152;2023-03-21T11:01:44;15.63;;;7.68;;
51288;SDS011;37372;52.294;5.152;2023-03-21T11:04:17;14.57;;;6.70;;
51288;SDS011;37372;52.294;5.152;2023-03-21T11:07:11;20.50;;;8.57;;
51288;SDS011;37372;52.294;5.152;2023-03-21T11:09:44;22.45;;;8.10;;
51288;SDS011;37372;52.294;5.152;2023-03-21T11:13:22;16.92;;;8.38;;
51288;SDS011;37372;52.294;5.152;2023-03-21T11:18:35;12.85;;;6.72;;
51288;SDS011;37372;52.294;5.152;2023-03-21T11:21:06;16.17;;;7.63;;
51288;SDS011;37372;52.294;5.152;2023-03-21T11:23:55;20.52;;;7.90;;
51288;SDS011;37372;52.294;5.152;2023-03-21T11:26:39;15.50;;;7.18;;
51288;SDS011;37372;52.294;5.152;2023-03-21T11:29:28;12.82;;;7.68;;
51288;SDS011;37372;52.294;5.152;2023-03-21T11:34:59;15.95;;;7.45;;
51288;SDS011;37372;52.294;5.152;2023-03-21T11:43:05;21.73;;;8.02;;
51288;SDS011;37372;52.294;5.152;2023-03-21T11:48:38;17.60;;;7.82;;
51288;SDS011;37372;52.294;5.152;2023-03-21T12:05:28;16.67;;;8.40;;
51288;SDS011;37372;52.294;5.152;2023-03-21T12:14:11;16.48;;;8.10;;
51288;SDS011;37372;52.294;5.152;2023-03-21T12:17:04;18.27;;;8.45;;
51288;SDS011;37372;52.294;5.152;2023-03-21T12:22:48;15.75;;;8.43;;
51288;SDS011;37372;52.294;5.152;2023-03-21T12:35:00;19.05;;;7.85;;
51288;SDS011;37372;52.294;5.152;2023-03-21T12:49:42;15.38;;;6.90;;
51288;SDS011;37372;52.294;5.152;2023-03-21T12:52:35;16.10;;;8.05;;
51288;SDS011;37372;52.294;5.152;2023-03-21T12:57:39;16.80;;;6.72;;
51288;SDS011;37372;52.294;5.152;2023-03-21T13:00:27;10.35;;;6.63;;
51288;SDS011;37372;52.294;5.152;2023-03-21T13:03:07;11.18;;;7.07;;
51288;SDS011;37372;52.294;5.152;2023-03-21T13:05:39;12.35;;;7.47;;
51288;SDS011;37372;52.294;5.152;2023-03-21T13:11:13;17.02;;;7.65;;
51288;SDS011;37372;52.294;5.152;2023-03-21T13:18:49;12.52;;;7.20;;
51288;SDS011;37372;52.294;5.152;2023-03-21T13:24:42;14.35;;;7.60;;
51288;SDS011;37372;52.294;5.152;2023-03-21T13:30:16;14.73;;;7.53;;
51288;SDS011;37372;52.294;5.152;2023-03-21T13:32:54;13.88;;;7.38;;
51288;SDS011;37372;52.294;5.152;2023-03-21T13:35:32;16.08;;;7.47;;
51288;SDS011;37372;52.294;5.152;2023-03-21T13:41:12;17.70;;;7.53;;
51288;SDS011;37372;52.294;5.152;2023-03-21T13:44:15;14.23;;;7.15;;
51288;SDS011;37372;52.294;5.152;2023-03-21T13:53:18;16.45;;;6.90;;
51288;SDS011;37372;52.294;5.152;2023-03-21T13:56:20;14.15;;;7.55;;
51288;SDS011;37372;52.294;5.152;2023-03-21T14:04:41;12.65;;;7.57;;
51288;SDS011;37372;52.294;5.152;2023-03-21T14:07:39;16.83;;;7.82;;
51288;SDS011;37372;52.294;5.152;2023-03-21T14:12:52;13.10;;;7.25;;
51288;SDS011;37372;52.294;5.152;2023-03-21T14:15:22;19.15;;;8.32;;
51288;SDS011;37372;52.294;5.152;2023-03-21T14:17:55;15.88;;;8.15;;
51288;SDS011;37372;52.294;5.152;2023-03-21T14:20:24;15.40;;;8.43;;
51288;SDS011;37372;52.294;5.152;2023-03-21T14:23:15;15.45;;;8.30;;
51288;SDS011;37372;52.294;5.152;2023-03-21T14:28:24;16.50;;;7.95;;
51288;SDS011;37372;52.294;5.152;2023-03-21T14:30:53;17.42;;;8.13;;
51288;SDS011;37372;52.294;5.152;2023-03-21T14:33:49;15.15;;;7.82;;
51288;SDS011;37372;52.294;5.152;2023-03-21T14:36:31;14.15;;;7.72;;
51288;SDS011;37372;52.294;5.152;2023-03-21T14:41:47;13.15;;;7.38;;
51288;SDS011;37372;52.294;5.152;2023-03-21T14:44:48;13.68;;;6.65;;
51288;SDS011;37372;52.294;5.152;2023-03-21T14:47:26;12.00;;;8.38;;
51288;SDS011;37372;52.294;5.152;2023-03-21T14:49:57;14.07;;;6.72;;
51288;SDS011;37372;52.294;5.152;2023-03-21T14:52:31;14.57;;;7.88;;
51288;SDS011;37372;52.294;5.152;2023-03-21T14:55:10;15.98;;;7.60;;
51288;SDS011;37372;52.294;5.152;2023-03-21T14:57:51;12.40;;;7.15;;
51288;SDS011;37372;52.294;5.152;2023-03-21T15:00:23;13.57;;;7.25;;
51288;SDS011;37372;52.294;5.152;2023-03-21T15:02:59;13.63;;;6.88;;
51288;SDS011;37372;52.294;5.152;2023-03-21T15:05:31;14.82;;;7.85;;
51288;SDS011;37372;52.294;5.152;2023-03-21T15:08:01;15.48;;;7.05;;
51288;SDS011;37372;52.294;5.152;2023-03-21T15:10:33;13.73;;;7.82;;
51288;SDS011;37372;52.294;5.152;2023-03-21T15:12:59;15.90;;;9.20;;
51288;SDS011;37372;52.294;5.152;2023-03-21T15:15:27;15.77;;;7.32;;
51288;SDS011;37372;52.294;5.152;2023-03-21T15:17:55;15.52;;;7.40;;
51288;SDS011;37372;52.294;5.152;2023-03-21T15:20:39;12.82;;;7.47;;
51288;SDS011;37372;52.294;5.152;2023-03-21T15:23:37;11.63;;;6.90;;
51288;SDS011;37372;52.294;5.152;2023-03-21T15:26:28;11.38;;;6.57;;
51288;SDS011;37372;52.294;5.152;2023-03-21T15:28:58;9.23;;;5.88;;
51288;SDS011;37372;52.294;5.152;2023-03-21T15:35:04;13.25;;;6.97;;
51288;SDS011;37372;52.294;5.152;2023-03-21T15:37:36;12.43;;;6.60;;
51288;SDS011;37372;52.294;5.152;2023-03-21T15:40:08;15.48;;;7.25;;
51288;SDS011;37372;52.294;5.152;2023-03-21T15:43:21;11.55;;;6.07;;
51288;SDS011;37372;52.294;5.152;2023-03-21T15:45:50;11.88;;;6.38;;
51288;SDS011;37372;52.294;5.152;2023-03-21T15:48:25;11.50;;;6.45;;
51288;SDS011;37372;52.294;5.152;2023-03-21T15:51:25;10.15;;;6.28;;
51288;SDS011;37372;52.294;5.152;2023-03-21T15:53:51;11.77;;;6.75;;
51288;SDS011;37372;52.294;5.152;2023-03-21T15:56:21;9.90;;;6.68;;
51288;SDS011;37372;52.294;5.152;2023-03-21T15:58:48;13.25;;;6.93;;
51288;SDS011;37372;52.294;5.152;2023-03-21T16:01:17;12.73;;;7.05;;
51288;SDS011;37372;52.294;5.152;2023-03-21T16:03:54;18.60;;;7.13;;
51288;SDS011;37372;52.294;5.152;2023-03-21T16:06:31;11.02;;;6.88;;
51288;SDS011;37372;52.294;5.152;2023-03-21T16:09:12;15.00;;;7.68;;
51288;SDS011;37372;52.294;5.152;2023-03-21T16:11:54;18.05;;;7.50;;
51288;SDS011;37372;52.294;5.152;2023-03-21T16:14:25;13.27;;;8.00;;
51288;SDS011;37372;52.294;5.152;2023-03-21T16:20:33;12.82;;;8.90;;
51288;SDS011;37372;52.294;5.152;2023-03-21T16:23:00;15.07;;;10.98;;
51288;SDS011;37372;52.294;5.152;2023-03-21T16:25:33;14.15;;;8.45;;
51288;SDS011;37372;52.294;5.152;2023-03-21T16:27:59;19.60;;;9.70;;
51288;SDS011;37372;52.294;5.152;2023-03-21T16:30:24;15.18;;;8.30;;
51288;SDS011;37372;52.294;5.152;2023-03-21T16:33:00;13.65;;;8.18;;
51288;SDS011;37372;52.294;5.152;2023-03-21T16:38:05;16.20;;;8.35;;
51288;SDS011;37372;52.294;5.152;2023-03-21T16:40:39;15.63;;;8.90;;
51288;SDS011;37372;52.294;5.152;2023-03-21T16:43:06;14.13;;;9.85;;
51288;SDS011;37372;52.294;5.152;2023-03-21T16:45:41;16.98;;;9.43;;
51288;SDS011;37372;52.294;5.152;2023-03-21T16:48:08;14.95;;;8.50;;
51288;SDS011;37372;52.294;5.152;2023-03-21T16:50:44;13.85;;;6.57;;
51288;SDS011;37372;52.294;5.152;2023-03-21T16:53:22;11.35;;;7.43;;
51288;SDS011;37372;52.294;5.152;2023-03-21T16:55:52;14.13;;;5.95;;
51288;SDS011;37372;52.294;5.152;2023-03-21T16:58:23;11.90;;;6.30;;
51288;SDS011;37372;52.294;5.152;2023-03-21T17:00:49;9.32;;;5.38;;
51288;SDS011;37372;52.294;5.152;2023-03-21T17:03:15;10.27;;;5.45;;
51288;SDS011;37372;52.294;5.152;2023-03-21T17:05:46;10.95;;;5.10;;
51288;SDS011;37372;52.294;5.152;2023-03-21T17:08:13;10.48;;;5.22;;
51288;SDS011;37372;52.294;5.152;2023-03-21T17:10:43;10.05;;;4.63;;
51288;SDS011;37372;52.294;5.152;2023-03-21T17:13:42;9.77;;;4.43;;
51288;SDS011;37372;52.294;5.152;2023-03-21T17:16:01;7.75;;;4.72;;
51288;SDS011;37372;52.294;5.152;2023-03-21T17:18:27;7.95;;;4.65;;
51288;SDS011;37372;52.294;5.152;2023-03-21T17:21:04;9.73;;;5.72;;
51288;SDS011;37372;52.294;5.152;2023-03-21T17:23:46;12.90;;;4.65;;
51288;SDS011;37372;52.294;5.152;2023-03-21T17:26:13;9.13;;;5.10;;
51288;SDS011;37372;52.294;5.152;2023-03-21T17:28:40;9.13;;;4.22;;
51288;SDS011;37372;52.294;5.152;2023-03-21T17:31:49;8.45;;;4.65;;
51288;SDS011;37372;52.294;5.152;2023-03-21T17:34:03;6.47;;;4.33;;
51288;SDS011;37372;52.294;5.152;2023-03-21T17:36:30;9.40;;;4.72;;
51288;SDS011;37372;52.294;5.152;2023-03-21T17:38:58;6.50;;;4.60;;
51288;SDS011;37372;52.294;5.152;2023-03-21T17:41:24;8.38;;;5.18;;
51288;SDS011;37372;52.294;5.152;2023-03-21T17:43:53;7.80;;;4.80;;
51288;SDS011;37372;52.294;5.152;2023-03-21T17:46:20;9.60;;;5.65;;
51288;SDS011;37372;52.294;5.152;2023-03-21T17:48:59;11.82;;;7.00;;
51288;SDS011;37372;52.294;5.152;2023-03-21T17:51:34;9.25;;;6.10;;
51288;SDS011;37372;52.294;5.152;2023-03-21T17:56:26;9.15;;;5.50;;